Flight Track Log - Related Links

Times and Time Zones

All times are in EDT time to prevent confusion due to time zone crossing. See the UAL256 flight status page for this flight to view local times or setup timezone preferences in your user account.

Time Position Orientation Groundspeed Altitude Reporting Facility
EDT Latitude Longitude Course Direction KTS MPH feet Rate Location/Type
Sun 09:59:26 PM 39.8833 -104.6000 67° East 176 203 6,300  Level Denver TRACON
Sun 10:00:26 PM 39.8833 -104.5333 90° East 221 254 7,800 1,824 Climbing Denver TRACON
Sun 10:01:00 PM 39.8667 -104.2159 90° East  Level FlightAware Approximate
Sun 10:01:08 PM 39.8742 -104.4722 101° East 241 277 9,400  Level Denver Center
Sun 10:02:00 PM 39.8667 -104.0652 90° East  Level FlightAware Approximate
Sun 10:02:10 PM 39.8733 -104.3603 91° East 310 357 11,100  Level Denver Center
Sun 10:03:00 PM 39.8667 -103.9146 90° East  Level FlightAware Approximate
Sun 10:03:12 PM 39.8728 -104.2158 90° East 376 433 13,200  Level Denver Center
Sun 10:04:00 PM 39.8726 -103.7655 67° East  Level FlightAware Approximate
Sun 10:04:14 PM 39.8722 -104.0733 90° East 397 457 15,600  Level Denver Center
Sun 10:05:16 PM 39.8711 -103.9106 90° East 418 481 18,300 2,419 Climbing Denver Center
Sun 10:06:18 PM 39.8814 -103.7567 85° East 428 493 20,600 1,951 Climbing Denver Center
Sun 10:07:19 PM 39.8994 -103.5933 82° East 422 486 22,300 1,463 Climbing Denver Center
Sun 10:08:21 PM 39.9197 -103.4233 81° East 468 539 23,600 1,452 Climbing Denver Center
Sun 10:09:23 PM 39.9378 -103.2492 82° East 480 552 25,300 1,597 Climbing Denver Center
Sun 10:10:25 PM 39.9581 -103.0722 81° East 486 559 26,900 1,403 Climbing Denver Center
Sun 10:11:27 PM 39.9772 -102.8936 82° East 493 567 28,200 1,561 Climbing Denver Center
Sun 10:12:28 PM 39.9975 -102.7128 82° East 499 574 30,100 1,756 Climbing Denver Center
Sun 10:13:30 PM 40.0150 -102.5386 82° East 495 570 31,800 1,839 Climbing Denver Center
Sun 10:14:32 PM 40.0356 -102.3469 82° East 479 551 33,900 1,597 Climbing Denver Center
Sun 10:15:34 PM 40.0533 -102.1836 82° East 476 548 35,100 1,317 Climbing Denver Center
Sun 10:16:35 PM 40.0725 -101.9936 82° East 475 547 36,600 927 Climbing Denver Center
Sun 10:17:37 PM 40.0878 -101.8306 83° East 473 544 37,000 194 Climbing Denver Center
Sun 10:18:39 PM 40.1072 -101.6378 82° East 479 551 37,000  Level Denver Center
Sun 10:19:40 PM 40.1225 -101.4711 83° East 484 557 37,000  Level Denver Center
Sun 10:20:42 PM 40.1408 -101.2753 83° East 489 563 37,000  Level Denver Center
Sun 10:21:44 PM 40.1564 -101.1106 83° East 482 555 37,000  Level Denver Center
Sun 10:22:46 PM 40.1717 -100.9503 83° East 470 541 37,000  Level Denver Center
Sun 10:23:47 PM 40.1889 -100.7614 83° East 472 543 37,000  Level Denver Center
Sun 10:24:49 PM 40.2028 -100.6017 83° East 467 537 37,000  Level Denver Center
Sun 10:25:51 PM 40.2067 -100.4125 88° East 467 537 37,000  Level Denver Center
Sun 10:26:52 PM 40.2089 -100.2478 89° East 473 544 37,000  Level Denver Center
Sun 10:27:54 PM 40.2119 -100.0569 89° East 472 543 37,000  Level Denver Center
Sun 10:28:56 PM 40.2144 -99.8739 89° East 474 545 37,000  Level Denver Center
Sun 10:29:57 PM 40.2158 -99.7014 89° East 476 548 37,000  Level Denver Center
Sun 10:30:59 PM 40.2183 -99.5294 89° East 474 545 37,000  Level Denver Center
Sun 10:32:00 PM 40.2192 -99.3583 90° East 471 542 37,000  Level Denver Center
Sun 10:33:02 PM 40.2200 -99.1875 90° East 473 544 37,000  Level Denver Center
Sun 10:34:04 PM 40.2217 -99.0153 89° East 475 547 37,000  Level Denver Center
Sun 10:35:05 PM 40.2217 -98.8450 90° East 471 542 37,000  Level Denver Center
Sun 10:35:29 PM 40.2231 -98.7778 88° East 473 544 37,000  Level Minneapolis Center
Sun 10:36:30 PM 40.2231 -98.6058 90° East 474 545 37,000  Level Minneapolis Center
Sun 10:37:31 PM 40.2225 -98.4025 90° East 470 541 37,000  Level Minneapolis Center
Sun 10:38:32 PM 40.2222 -98.2339 90° East 467 537 37,000  Level Minneapolis Center
Sun 10:39:33 PM 40.2217 -98.0625 90° East 471 542 37,000  Level Minneapolis Center
Sun 10:40:34 PM 40.2208 -97.8906 90° East 474 545 37,000 49 Level Minneapolis Center
Sun 10:41:35 PM 40.2197 -97.7181 90° East 475 547 37,100  Climbing Minneapolis Center
Sun 10:42:36 PM 40.2186 -97.5444 90° East 476 548 37,000 -49 Descending Minneapolis Center
Sun 10:43:37 PM 40.2167 -97.3719 91° East 476 548 37,000  Level Minneapolis Center
Sun 10:44:38 PM 40.2156 -97.2086 90° East 473 544 37,000  Level Minneapolis Center
Sun 10:45:39 PM 40.2128 -97.0375 91° East 472 543 37,000  Level Minneapolis Center
Sun 10:46:40 PM 40.2108 -96.8333 91° East 472 543 37,000  Level Minneapolis Center
Sun 10:47:42 PM 40.2078 -96.6633 91° East 469 540 37,000  Level Minneapolis Center
Sun 10:48:43 PM 40.2056 -96.4922 91° East 471 542 37,000  Level Minneapolis Center
Sun 10:49:44 PM 40.2022 -96.3203 91° East 473 544 37,000  Level Minneapolis Center
Sun 10:50:45 PM 40.1997 -96.1489 91° East 474 545 37,000  Level Minneapolis Center
Sun 10:51:46 PM 40.1986 -95.9758 90° East 477 549 37,000  Level Minneapolis Center
Sun 10:52:47 PM 40.1986 -95.8006 90° East 483 556 37,000  Level Minneapolis Center
Sun 10:53:48 PM 40.1967 -95.6281 91° East 479 551 37,000  Level Minneapolis Center
Sun 10:54:49 PM 40.1964 -95.4561 90° East 476 548 37,000  Level Minneapolis Center
Sun 10:55:50 PM 40.1950 -95.2850 91° East 474 545 37,000  Level Minneapolis Center
Sun 10:56:52 PM 40.1928 -95.0797 91° East 473 544 37,000  Level Minneapolis Center
Sun 10:57:53 PM 40.1900 -94.9086 91° East 473 544 37,000  Level Minneapolis Center
Sun 10:58:54 PM 40.1881 -94.7364 91° East 474 545 37,000  Level Minneapolis Center
Sun 10:59:55 PM 40.1858 -94.5650 91° East 473 544 37,000  Level Minneapolis Center
Sun 11:00:56 PM 40.1831 -94.3861 91° East 472 543 37,000  Level Minneapolis Center
Sun 11:01:58 PM 40.1789 -94.2139 92° East 473 544 37,000  Level Kansas City Center
Sun 11:02:59 PM 40.1731 -94.0444 93° East 476 548 37,000  Level Kansas City Center
Sun 11:04:00 PM 40.1694 -93.8744 92° East 475 547 37,000  Level Kansas City Center
Sun 11:05:01 PM 40.1944 -93.7114 79° East 462 532 37,000  Level Kansas City Center
Sun 11:06:02 PM 40.2222 -93.5472 77° East 464 534 37,000  Level Kansas City Center
Sun 11:07:03 PM 40.2486 -93.3839 78° East 462 532 37,000  Level Kansas City Center
Sun 11:08:04 PM 40.2803 -93.1889 78° East 460 529 37,000  Level Kansas City Center
Sun 11:09:05 PM 40.3067 -93.0244 78° East 463 533 37,000  Level Kansas City Center
Sun 11:10:06 PM 40.3344 -92.8564 78° East 465 535 37,000  Level Kansas City Center
Sun 11:11:07 PM 40.3606 -92.6992 78° East 463 533 37,000  Level Kansas City Center
Sun 11:12:08 PM 40.3861 -92.5247 79° East 468 539 37,000  Level Kansas City Center
Sun 11:13:09 PM 40.4117 -92.3589 79° East 467 537 37,000  Level Kansas City Center
Sun 11:14:10 PM 40.4383 -92.1842 79° East 467 537 37,000  Level Kansas City Center
Sun 11:15:11 PM 40.4631 -92.0186 79° East 465 535 37,000 -590 Level Kansas City Center
Sun 11:16:12 PM 40.4875 -91.8547 79° East 462 532 35,800 -1,230 Descending Kansas City Center
Sun 11:17:13 PM 40.5111 -91.6894 79° East 463 533 34,500 -1,241 Descending Kansas City Center
Sun 11:17:39 PM 40.5222 -91.6239 77° East 464 534 34,000 -1,034 Descending Chicago Center
Sun 11:18:40 PM 40.5458 -91.4564 79° East 469 540 33,000 -492 Descending Chicago Center
Sun 11:19:41 PM 40.5908 -91.2967 70° East 466 536 33,000  Level Chicago Center
Sun 11:20:42 PM 40.6547 -91.1133 65° Northeast 464 534 33,000  Level Chicago Center
Sun 11:21:43 PM 40.7064 -90.9581 66° East 463 533 33,000  Level Chicago Center
Sun 11:22:43 PM 40.7586 -90.8036 66° East 461 531 33,000  Level Chicago Center
Sun 11:23:44 PM 40.8117 -90.6478 66° East 463 533 33,000  Level Chicago Center
Sun 11:24:45 PM 40.8628 -90.4925 66° East 460 529 33,000  Level Chicago Center
Sun 11:25:46 PM 40.9161 -90.3375 65° Northeast 462 532 33,000  Level Chicago Center
Sun 11:26:47 PM 40.9650 -90.1864 67° East 462 532 33,000 -397 Level Chicago Center
Sun 11:27:47 PM 41.0192 -90.0217 66° East 463 533 32,200 -1,587 Descending Chicago Center
Sun 11:28:48 PM 41.0708 -89.8642 66° East 462 532 29,800 -2,311 Descending Chicago Center
Sun 11:29:49 PM 41.1225 -89.7061 66° East 463 533 27,500 -2,311 Descending Chicago Center
Sun 11:30:50 PM 41.1769 -89.5469 66° East 470 541 25,100 -2,430 Descending Chicago Center
Sun 11:31:50 PM 41.2414 -89.3914 61° Northeast 477 549 22,600 -2,479 Descending Chicago Center
Sun 11:32:51 PM 41.3028 -89.2378 62° Northeast 469 540 20,100 -2,557 Descending Chicago Center
Sun 11:33:52 PM 41.3656 -89.0792 62° Northeast 451 519 17,400 -2,607 Descending Chicago Center
Sun 11:34:53 PM 41.4200 -88.9414 62° Northeast 426 490 14,800 -2,628 Descending Chicago Center
Sun 11:35:53 PM 41.4736 -88.8064 62° Northeast 416 479 12,100 -1,884 Descending Chicago Center
Sun 11:36:54 PM 41.5242 -88.6792 62° Northeast 391 450 11,000 -492 Descending Chicago Center
Sun 11:37:55 PM 41.5736 -88.5550 62° Northeast 382 440 11,100  Climbing Chicago Center
Sun 11:38:55 PM 41.6278 -88.4322 59° Northeast 385 443 11,000 -99 Descending Chicago Center
Sun 11:39:56 PM 41.6942 -88.3214 51° Northeast 382 440 10,900 -98 Descending Chicago Center
Sun 11:40:57 PM 41.7517 -88.2219 52° Northeast 334 384 10,800 -694 Descending Chicago Center
Sun 11:41:57 PM 41.8042 -88.1447 48° Northeast 288 331 9,500 -1,488 Descending Chicago Center
Sun 11:42:58 PM 41.8806 -88.1444 360° North 277 319 7,800 -1,721 Descending Chicago Center
Sun 11:43:59 PM 41.9544 -88.1461 359° North 270 311 6,000 -1,835 Descending Chicago Center
Sun 11:44:59 PM 42.0275 -88.1489 358° North 265 305 4,100 -1,096 Descending Chicago Center
Sun 11:45:54 PM 42.0833 -88.1167 23° Northeast 242 278 3,900 -470 Descending Chicago TRACON
Sun 11:46:54 PM 42.0833 -88.0500 90° East 216 249 3,200 -700 Descending Chicago TRACON

Login

Don't have an account? Register now (free) for customized features, flight alerts, and more!